sensor_id;sensor_type;location;lat;lon;timestamp;temperature;humidity
24226;DHT22;51462;51.422;5.514;2023-05-07T00:01:33;15.50;99.90
24226;DHT22;51462;51.422;5.514;2023-05-07T00:03:58;15.70;99.90
24226;DHT22;51462;51.422;5.514;2023-05-07T00:06:24;15.60;99.90
24226;DHT22;51462;51.422;5.514;2023-05-07T00:08:51;15.80;99.90
24226;DHT22;51462;51.422;5.514;2023-05-07T00:11:16;15.80;99.90
24226;DHT22;51462;51.422;5.514;2023-05-07T00:13:42;15.70;99.90
24226;DHT22;51462;51.422;5.514;2023-05-07T00:16:07;15.70;99.90
24226;DHT22;51462;51.422;5.514;2023-05-07T00:18:33;15.70;99.90
24226;DHT22;51462;51.422;5.514;2023-05-07T00:20:59;15.80;99.90
24226;DHT22;51462;51.422;5.514;2023-05-07T00:23:24;15.70;99.90
24226;DHT22;51462;51.422;5.514;2023-05-07T00:25:50;15.80;99.90
24226;DHT22;51462;51.422;5.514;2023-05-07T00:28:15;15.80;99.90
24226;DHT22;51462;51.422;5.514;2023-05-07T00:30:41;16.00;99.90
24226;DHT22;51462;51.422;5.514;2023-05-07T00:33:06;16.00;99.90
24226;DHT22;51462;51.422;5.514;2023-05-07T00:35:32;15.80;99.90
24226;DHT22;51462;51.422;5.514;2023-05-07T00:37:57;15.60;99.90
24226;DHT22;51462;51.422;5.514;2023-05-07T00:40:23;15.70;99.90
24226;DHT22;51462;51.422;5.514;2023-05-07T00:45:19;15.60;99.90
24226;DHT22;51462;51.422;5.514;2023-05-07T00:47:45;15.70;99.90
24226;DHT22;51462;51.422;5.514;2023-05-07T00:50:10;15.60;99.90
24226;DHT22;51462;51.422;5.514;2023-05-07T00:52:37;15.50;99.90
24226;DHT22;51462;51.422;5.514;2023-05-07T00:55:05;15.40;99.90
24226;DHT22;51462;51.422;5.514;2023-05-07T00:57:37;15.30;99.90
24226;DHT22;51462;51.422;5.514;2023-05-07T01:00:05;15.30;99.90
24226;DHT22;51462;51.422;5.514;2023-05-07T01:02:30;15.20;99.90
24226;DHT22;51462;51.422;5.514;2023-05-07T01:04:56;15.20;99.90
24226;DHT22;51462;51.422;5.514;2023-05-07T01:07:22;15.00;99.90
24226;DHT22;51462;51.422;5.514;2023-05-07T01:09:49;15.00;99.90
24226;DHT22;51462;51.422;5.514;2023-05-07T01:12:15;15.00;99.90
24226;DHT22;51462;51.422;5.514;2023-05-07T01:14:41;15.00;99.90
24226;DHT22;51462;51.422;5.514;2023-05-07T01:17:07;15.00;99.90
24226;DHT22;51462;51.422;5.514;2023-05-07T01:19:33;15.00;99.90
24226;DHT22;51462;51.422;5.514;2023-05-07T01:22:07;15.00;99.90
24226;DHT22;51462;51.422;5.514;2023-05-07T01:24:33;15.00;99.90
24226;DHT22;51462;51.422;5.514;2023-05-07T01:27:00;14.90;99.90
24226;DHT22;51462;51.422;5.514;2023-05-07T01:29:27;14.90;99.90
24226;DHT22;51462;51.422;5.514;2023-05-07T01:31:52;14.90;99.90
24226;DHT22;51462;51.422;5.514;2023-05-07T01:34:20;14.90;99.90
24226;DHT22;51462;51.422;5.514;2023-05-07T01:36:47;14.90;99.90
24226;DHT22;51462;51.422;5.514;2023-05-07T01:39:13;14.90;99.90
24226;DHT22;51462;51.422;5.514;2023-05-07T01:41:40;14.90;99.90
24226;DHT22;51462;51.422;5.514;2023-05-07T01:44:05;14.90;99.90
24226;DHT22;51462;51.422;5.514;2023-05-07T01:46:32;14.80;99.90
24226;DHT22;51462;51.422;5.514;2023-05-07T01:48:58;14.80;99.90
24226;DHT22;51462;51.422;5.514;2023-05-07T01:51:24;14.80;99.90
24226;DHT22;51462;51.422;5.514;2023-05-07T01:53:50;14.80;99.90
24226;DHT22;51462;51.422;5.514;2023-05-07T01:56:18;14.80;99.90
24226;DHT22;51462;51.422;5.514;2023-05-07T01:58:45;14.70;99.90
24226;DHT22;51462;51.422;5.514;2023-05-07T02:01:12;14.80;99.90
24226;DHT22;51462;51.422;5.514;2023-05-07T02:03:38;14.70;99.90
24226;DHT22;51462;51.422;5.514;2023-05-07T02:06:03;14.70;99.90
24226;DHT22;51462;51.422;5.514;2023-05-07T02:08:29;14.70;99.90
24226;DHT22;51462;51.422;5.514;2023-05-07T02:10:55;14.70;99.90
24226;DHT22;51462;51.422;5.514;2023-05-07T02:13:20;14.70;99.90
24226;DHT22;51462;51.422;5.514;2023-05-07T02:15:47;14.70;99.90
24226;DHT22;51462;51.422;5.514;2023-05-07T02:18:16;14.70;99.90
24226;DHT22;51462;51.422;5.514;2023-05-07T02:20:41;14.70;99.90
24226;DHT22;51462;51.422;5.514;2023-05-07T02:23:07;14.70;99.90
24226;DHT22;51462;51.422;5.514;2023-05-07T02:25:33;14.60;99.90
24226;DHT22;51462;51.422;5.514;2023-05-07T02:27:58;14.60;99.90
24226;DHT22;51462;51.422;5.514;2023-05-07T02:30:25;14.60;99.90
24226;DHT22;51462;51.422;5.514;2023-05-07T02:32:51;14.60;99.90
24226;DHT22;51462;51.422;5.514;2023-05-07T02:35:16;14.60;99.90
24226;DHT22;51462;51.422;5.514;2023-05-07T02:37:42;14.60;99.90
24226;DHT22;51462;51.422;5.514;2023-05-07T02:40:08;14.60;99.90
24226;DHT22;51462;51.422;5.514;2023-05-07T02:42:34;14.60;99.90
24226;DHT22;51462;51.422;5.514;2023-05-07T02:45:00;14.60;99.90
24226;DHT22;51462;51.422;5.514;2023-05-07T02:47:25;14.60;99.90
24226;DHT22;51462;51.422;5.514;2023-05-07T02:49:56;14.60;99.90
24226;DHT22;51462;51.422;5.514;2023-05-07T02:52:22;14.60;99.90
24226;DHT22;51462;51.422;5.514;2023-05-07T02:54:47;14.60;99.90
24226;DHT22;51462;51.422;5.514;2023-05-07T02:57:13;14.60;99.90
24226;DHT22;51462;51.422;5.514;2023-05-07T02:59:39;14.60;99.90
24226;DHT22;51462;51.422;5.514;2023-05-07T03:02:04;14.60;99.90
24226;DHT22;51462;51.422;5.514;2023-05-07T03:04:30;14.60;99.90
24226;DHT22;51462;51.422;5.514;2023-05-07T03:06:56;14.60;99.90
24226;DHT22;51462;51.422;5.514;2023-05-07T03:09:21;14.60;99.90
24226;DHT22;51462;51.422;5.514;2023-05-07T03:11:47;14.60;99.90
24226;DHT22;51462;51.422;5.514;2023-05-07T03:14:12;14.60;99.90
24226;DHT22;51462;51.422;5.514;2023-05-07T03:16:39;14.50;99.90
24226;DHT22;51462;51.422;5.514;2023-05-07T03:19:04;14.50;99.90
24226;DHT22;51462;51.422;5.514;2023-05-07T03:21:30;14.50;99.90
24226;DHT22;51462;51.422;5.514;2023-05-07T03:23:56;14.50;99.90
24226;DHT22;51462;51.422;5.514;2023-05-07T03:26:21;14.50;99.90
24226;DHT22;51462;51.422;5.514;2023-05-07T03:28:47;14.60;99.90
24226;DHT22;51462;51.422;5.514;2023-05-07T03:31:13;14.50;99.90
24226;DHT22;51462;51.422;5.514;2023-05-07T03:33:56;14.50;99.90
24226;DHT22;51462;51.422;5.514;2023-05-07T03:36:22;14.50;99.90
24226;DHT22;51462;51.422;5.514;2023-05-07T03:38:48;14.50;99.90
24226;DHT22;51462;51.422;5.514;2023-05-07T03:41:14;14.60;99.90
24226;DHT22;51462;51.422;5.514;2023-05-07T03:43:40;14.50;99.90
24226;DHT22;51462;51.422;5.514;2023-05-07T03:46:06;14.50;99.90
24226;DHT22;51462;51.422;5.514;2023-05-07T03:48:31;14.50;99.90
24226;DHT22;51462;51.422;5.514;2023-05-07T03:50:57;14.50;99.90
24226;DHT22;51462;51.422;5.514;2023-05-07T03:53:23;14.50;99.90
24226;DHT22;51462;51.422;5.514;2023-05-07T03:55:49;14.50;99.90
24226;DHT22;51462;51.422;5.514;2023-05-07T03:58:15;14.50;99.90
24226;DHT22;51462;51.422;5.514;2023-05-07T04:00:40;14.50;99.90
24226;DHT22;51462;51.422;5.514;2023-05-07T04:03:06;14.40;99.90
24226;DHT22;51462;51.422;5.514;2023-05-07T04:05:32;14.40;99.90
24226;DHT22;51462;51.422;5.514;2023-05-07T04:07:58;14.50;99.90
24226;DHT22;51462;51.422;5.514;2023-05-07T04:10:24;14.40;99.90
24226;DHT22;51462;51.422;5.514;2023-05-07T04:12:49;14.50;99.90
24226;DHT22;51462;51.422;5.514;2023-05-07T04:15:15;14.60;99.90
24226;DHT22;51462;51.422;5.514;2023-05-07T04:17:41;14.60;99.90
24226;DHT22;51462;51.422;5.514;2023-05-07T04:20:09;14.60;99.90
24226;DHT22;51462;51.422;5.514;2023-05-07T04:22:36;14.60;99.90
24226;DHT22;51462;51.422;5.514;2023-05-07T04:25:01;14.60;99.90
24226;DHT22;51462;51.422;5.514;2023-05-07T04:27:27;14.70;99.90
24226;DHT22;51462;51.422;5.514;2023-05-07T04:29:53;14.80;99.90
24226;DHT22;51462;51.422;5.514;2023-05-07T04:32:21;14.90;99.90
24226;DHT22;51462;51.422;5.514;2023-05-07T04:34:47;15.10;99.90
24226;DHT22;51462;51.422;5.514;2023-05-07T04:37:12;15.10;99.90
24226;DHT22;51462;51.422;5.514;2023-05-07T04:39:38;15.00;99.90
24226;DHT22;51462;51.422;5.514;2023-05-07T04:42:03;14.90;99.90
24226;DHT22;51462;51.422;5.514;2023-05-07T04:44:29;14.90;99.90
24226;DHT22;51462;51.422;5.514;2023-05-07T04:46:56;14.80;99.90
24226;DHT22;51462;51.422;5.514;2023-05-07T04:49:22;14.80;99.90
24226;DHT22;51462;51.422;5.514;2023-05-07T04:51:47;14.70;99.90
24226;DHT22;51462;51.422;5.514;2023-05-07T04:54:13;14.70;99.90
24226;DHT22;51462;51.422;5.514;2023-05-07T04:56:38;14.70;99.90
24226;DHT22;51462;51.422;5.514;2023-05-07T04:59:04;14.70;99.90
24226;DHT22;51462;51.422;5.514;2023-05-07T05:01:29;14.70;99.90
24226;DHT22;51462;51.422;5.514;2023-05-07T05:03:55;14.70;99.90
24226;DHT22;51462;51.422;5.514;2023-05-07T05:06:21;14.70;99.90
24226;DHT22;51462;51.422;5.514;2023-05-07T05:08:46;14.70;99.90
24226;DHT22;51462;51.422;5.514;2023-05-07T05:11:12;14.70;99.90
24226;DHT22;51462;51.422;5.514;2023-05-07T05:13:37;14.70;99.90
24226;DHT22;51462;51.422;5.514;2023-05-07T05:16:03;14.70;99.90
24226;DHT22;51462;51.422;5.514;2023-05-07T05:18:29;14.70;99.90
24226;DHT22;51462;51.422;5.514;2023-05-07T05:20:54;14.70;99.90
24226;DHT22;51462;51.422;5.514;2023-05-07T05:23:20;14.70;99.90
24226;DHT22;51462;51.422;5.514;2023-05-07T05:25:45;14.70;99.90
24226;DHT22;51462;51.422;5.514;2023-05-07T05:28:11;14.70;99.90
24226;DHT22;51462;51.422;5.514;2023-05-07T05:30:37;14.70;99.90
24226;DHT22;51462;51.422;5.514;2023-05-07T05:33:02;14.80;99.90
24226;DHT22;51462;51.422;5.514;2023-05-07T05:35:29;14.80;99.90
24226;DHT22;51462;51.422;5.514;2023-05-07T05:37:54;14.80;99.90
24226;DHT22;51462;51.422;5.514;2023-05-07T05:40:20;14.80;99.90
24226;DHT22;51462;51.422;5.514;2023-05-07T05:42:45;14.80;99.90
24226;DHT22;51462;51.422;5.514;2023-05-07T05:45:11;14.80;99.90
24226;DHT22;51462;51.422;5.514;2023-05-07T05:47:37;14.80;99.90
24226;DHT22;51462;51.422;5.514;2023-05-07T05:50:03;14.80;99.90
24226;DHT22;51462;51.422;5.514;2023-05-07T05:52:30;14.90;99.90
24226;DHT22;51462;51.422;5.514;2023-05-07T05:54:55;14.90;99.90
24226;DHT22;51462;51.422;5.514;2023-05-07T05:57:21;14.90;99.90
24226;DHT22;51462;51.422;5.514;2023-05-07T05:59:47;14.90;99.90
24226;DHT22;51462;51.422;5.514;2023-05-07T06:02:12;14.90;99.90
24226;DHT22;51462;51.422;5.514;2023-05-07T06:04:38;15.00;99.90
24226;DHT22;51462;51.422;5.514;2023-05-07T06:07:03;15.00;99.90
24226;DHT22;51462;51.422;5.514;2023-05-07T06:09:29;15.00;99.90
24226;DHT22;51462;51.422;5.514;2023-05-07T06:11:54;15.10;99.90
24226;DHT22;51462;51.422;5.514;2023-05-07T06:14:20;15.20;99.90
24226;DHT22;51462;51.422;5.514;2023-05-07T06:16:45;15.20;99.90
24226;DHT22;51462;51.422;5.514;2023-05-07T06:19:11;15.20;99.90
24226;DHT22;51462;51.422;5.514;2023-05-07T06:21:36;15.20;99.90
24226;DHT22;51462;51.422;5.514;2023-05-07T06:24:02;15.20;99.90
24226;DHT22;51462;51.422;5.514;2023-05-07T06:26:28;15.30;99.90
24226;DHT22;51462;51.422;5.514;2023-05-07T06:28:53;15.30;99.90
24226;DHT22;51462;51.422;5.514;2023-05-07T06:31:19;15.30;99.90
24226;DHT22;51462;51.422;5.514;2023-05-07T06:33:49;15.40;99.90
24226;DHT22;51462;51.422;5.514;2023-05-07T06:36:15;15.40;99.90
24226;DHT22;51462;51.422;5.514;2023-05-07T06:38:40;15.40;99.90
24226;DHT22;51462;51.422;5.514;2023-05-07T06:41:06;15.40;99.90
24226;DHT22;51462;51.422;5.514;2023-05-07T06:43:32;15.50;99.90
24226;DHT22;51462;51.422;5.514;2023-05-07T06:45:58;15.50;99.90
24226;DHT22;51462;51.422;5.514;2023-05-07T06:48:23;15.60;99.90
24226;DHT22;51462;51.422;5.514;2023-05-07T06:50:49;15.60;99.90
24226;DHT22;51462;51.422;5.514;2023-05-07T06:53:15;15.70;99.90
24226;DHT22;51462;51.422;5.514;2023-05-07T06:55:40;15.70;99.90
24226;DHT22;51462;51.422;5.514;2023-05-07T06:58:07;15.60;99.90
24226;DHT22;51462;51.422;5.514;2023-05-07T07:00:32;15.70;99.90
24226;DHT22;51462;51.422;5.514;2023-05-07T07:02:58;15.70;99.90
24226;DHT22;51462;51.422;5.514;2023-05-07T07:05:24;15.80;99.90
24226;DHT22;51462;51.422;5.514;2023-05-07T07:07:50;15.80;99.90
24226;DHT22;51462;51.422;5.514;2023-05-07T07:10:21;15.80;99.90
24226;DHT22;51462;51.422;5.514;2023-05-07T07:12:47;15.80;99.90
24226;DHT22;51462;51.422;5.514;2023-05-07T07:15:16;16.00;99.90
24226;DHT22;51462;51.422;5.514;2023-05-07T07:17:41;15.90;99.90
24226;DHT22;51462;51.422;5.514;2023-05-07T07:20:07;16.00;99.90
24226;DHT22;51462;51.422;5.514;2023-05-07T07:22:33;16.10;99.90
24226;DHT22;51462;51.422;5.514;2023-05-07T07:24:59;16.00;99.90
24226;DHT22;51462;51.422;5.514;2023-05-07T07:27:24;16.00;99.90
24226;DHT22;51462;51.422;5.514;2023-05-07T07:29:50;16.00;99.90
24226;DHT22;51462;51.422;5.514;2023-05-07T07:32:16;16.10;99.90
24226;DHT22;51462;51.422;5.514;2023-05-07T07:34:41;16.10;99.90
24226;DHT22;51462;51.422;5.514;2023-05-07T07:37:07;16.20;99.90
24226;DHT22;51462;51.422;5.514;2023-05-07T07:39:32;16.20;99.90
24226;DHT22;51462;51.422;5.514;2023-05-07T07:41:58;16.30;99.90
24226;DHT22;51462;51.422;5.514;2023-05-07T07:44:24;16.30;99.90
24226;DHT22;51462;51.422;5.514;2023-05-07T07:46:49;16.40;99.90
24226;DHT22;51462;51.422;5.514;2023-05-07T07:49:16;16.30;99.90
24226;DHT22;51462;51.422;5.514;2023-05-07T07:51:41;16.40;99.90
24226;DHT22;51462;51.422;5.514;2023-05-07T07:54:07;16.40;99.90
24226;DHT22;51462;51.422;5.514;2023-05-07T07:56:33;16.40;99.90
24226;DHT22;51462;51.422;5.514;2023-05-07T07:58:59;16.40;99.90
24226;DHT22;51462;51.422;5.514;2023-05-07T08:01:25;16.40;99.90
24226;DHT22;51462;51.422;5.514;2023-05-07T08:03:51;16.50;99.90
24226;DHT22;51462;51.422;5.514;2023-05-07T08:06:16;16.50;99.90
24226;DHT22;51462;51.422;5.514;2023-05-07T08:08:42;16.50;99.90
24226;DHT22;51462;51.422;5.514;2023-05-07T08:11:08;16.50;99.90
24226;DHT22;51462;51.422;5.514;2023-05-07T08:13:34;16.50;99.90
24226;DHT22;51462;51.422;5.514;2023-05-07T08:15:59;16.70;99.90
24226;DHT22;51462;51.422;5.514;2023-05-07T08:18:25;16.60;99.90
24226;DHT22;51462;51.422;5.514;2023-05-07T08:20:51;16.80;99.90
24226;DHT22;51462;51.422;5.514;2023-05-07T08:23:17;16.80;99.90
24226;DHT22;51462;51.422;5.514;2023-05-07T08:25:42;16.90;99.90
24226;DHT22;51462;51.422;5.514;2023-05-07T08:28:08;16.90;99.90
24226;DHT22;51462;51.422;5.514;2023-05-07T08:30:34;17.00;99.90
24226;DHT22;51462;51.422;5.514;2023-05-07T08:33:00;17.00;99.90
24226;DHT22;51462;51.422;5.514;2023-05-07T08:35:26;17.00;99.90
24226;DHT22;51462;51.422;5.514;2023-05-07T08:37:52;17.10;99.90
24226;DHT22;51462;51.422;5.514;2023-05-07T08:40:18;17.20;99.90
24226;DHT22;51462;51.422;5.514;2023-05-07T08:42:44;17.20;99.90
24226;DHT22;51462;51.422;5.514;2023-05-07T08:45:10;17.10;99.90
24226;DHT22;51462;51.422;5.514;2023-05-07T08:47:43;17.20;99.90
24226;DHT22;51462;51.422;5.514;2023-05-07T08:50:12;17.40;99.90
24226;DHT22;51462;51.422;5.514;2023-05-07T08:52:39;17.40;99.90
24226;DHT22;51462;51.422;5.514;2023-05-07T08:55:06;17.50;99.90
24226;DHT22;51462;51.422;5.514;2023-05-07T08:57:32;17.60;99.90
24226;DHT22;51462;51.422;5.514;2023-05-07T08:59:58;17.70;99.90
24226;DHT22;51462;51.422;5.514;2023-05-07T09:02:23;17.70;99.90
24226;DHT22;51462;51.422;5.514;2023-05-07T09:04:49;17.70;99.90
24226;DHT22;51462;51.422;5.514;2023-05-07T09:07:16;17.90;99.90
24226;DHT22;51462;51.422;5.514;2023-05-07T09:09:42;18.00;99.90
24226;DHT22;51462;51.422;5.514;2023-05-07T09:12:09;17.90;99.90
24226;DHT22;51462;51.422;5.514;2023-05-07T09:14:35;18.00;99.90
24226;DHT22;51462;51.422;5.514;2023-05-07T09:17:01;18.10;99.90
24226;DHT22;51462;51.422;5.514;2023-05-07T09:19:27;18.10;99.90
24226;DHT22;51462;51.422;5.514;2023-05-07T09:22:03;18.10;99.90
24226;DHT22;51462;51.422;5.514;2023-05-07T09:24:29;18.10;99.90
24226;DHT22;51462;51.422;5.514;2023-05-07T09:26:59;18.20;99.90
24226;DHT22;51462;51.422;5.514;2023-05-07T09:29:25;18.30;99.90
24226;DHT22;51462;51.422;5.514;2023-05-07T09:31:51;18.10;99.90
24226;DHT22;51462;51.422;5.514;2023-05-07T09:34:16;18.30;99.90
24226;DHT22;51462;51.422;5.514;2023-05-07T09:36:42;18.60;99.90
24226;DHT22;51462;51.422;5.514;2023-05-07T09:39:08;18.60;99.90
24226;DHT22;51462;51.422;5.514;2023-05-07T09:41:43;18.60;99.90
24226;DHT22;51462;51.422;5.514;2023-05-07T09:44:09;18.50;99.90
24226;DHT22;51462;51.422;5.514;2023-05-07T09:46:36;18.60;99.90
24226;DHT22;51462;51.422;5.514;2023-05-07T09:49:07;18.40;99.90
24226;DHT22;51462;51.422;5.514;2023-05-07T09:51:41;18.90;99.90
24226;DHT22;51462;51.422;5.514;2023-05-07T09:54:10;19.10;99.90
24226;DHT22;51462;51.422;5.514;2023-05-07T09:56:35;19.00;99.90
24226;DHT22;51462;51.422;5.514;2023-05-07T09:59:03;19.00;99.90
24226;DHT22;51462;51.422;5.514;2023-05-07T10:01:31;19.10;99.90
24226;DHT22;51462;51.422;5.514;2023-05-07T10:03:57;19.40;99.90
24226;DHT22;51462;51.422;5.514;2023-05-07T10:06:24;19.50;99.90
24226;DHT22;51462;51.422;5.514;2023-05-07T10:08:52;19.50;99.90
24226;DHT22;51462;51.422;5.514;2023-05-07T10:11:18;19.50;99.90
24226;DHT22;51462;51.422;5.514;2023-05-07T10:13:46;19.40;99.90
24226;DHT22;51462;51.422;5.514;2023-05-07T10:16:13;19.60;99.90
24226;DHT22;51462;51.422;5.514;2023-05-07T10:18:40;19.80;99.90
24226;DHT22;51462;51.422;5.514;2023-05-07T10:21:20;19.50;99.90
24226;DHT22;51462;51.422;5.514;2023-05-07T10:23:50;19.50;99.90
24226;DHT22;51462;51.422;5.514;2023-05-07T10:26:17;19.70;99.90
24226;DHT22;51462;51.422;5.514;2023-05-07T10:28:46;20.00;99.90
24226;DHT22;51462;51.422;5.514;2023-05-07T10:34:00;20.30;99.90
24226;DHT22;51462;51.422;5.514;2023-05-07T10:36:27;20.40;99.90
24226;DHT22;51462;51.422;5.514;2023-05-07T10:38:53;20.40;99.90
24226;DHT22;51462;51.422;5.514;2023-05-07T10:41:20;20.50;99.90
24226;DHT22;51462;51.422;5.514;2023-05-07T10:43:46;20.50;99.90
24226;DHT22;51462;51.422;5.514;2023-05-07T10:51:29;20.70;99.90
24226;DHT22;51462;51.422;5.514;2023-05-07T10:56:40;20.80;99.90
24226;DHT22;51462;51.422;5.514;2023-05-07T11:01:57;21.10;99.90
24226;DHT22;51462;51.422;5.514;2023-05-07T11:04:23;21.00;99.90
24226;DHT22;51462;51.422;5.514;2023-05-07T11:09:54;21.10;99.90
24226;DHT22;51462;51.422;5.514;2023-05-07T11:15:12;21.20;99.90
24226;DHT22;51462;51.422;5.514;2023-05-07T11:18:04;20.90;99.90
24226;DHT22;51462;51.422;5.514;2023-05-07T11:20:50;21.00;99.90
24226;DHT22;51462;51.422;5.514;2023-05-07T11:26:01;21.20;99.90
24226;DHT22;51462;51.422;5.514;2023-05-07T11:28:29;21.10;99.90
24226;DHT22;51462;51.422;5.514;2023-05-07T11:30:56;21.10;99.90
24226;DHT22;51462;51.422;5.514;2023-05-07T11:33:22;21.00;99.90
24226;DHT22;51462;51.422;5.514;2023-05-07T11:35:48;21.10;99.90
24226;DHT22;51462;51.422;5.514;2023-05-07T11:38:13;21.10;99.90
24226;DHT22;51462;51.422;5.514;2023-05-07T11:40:58;21.10;99.90
24226;DHT22;51462;51.422;5.514;2023-05-07T11:43:26;21.30;99.90
24226;DHT22;51462;51.422;5.514;2023-05-07T11:45:52;21.50;99.90
24226;DHT22;51462;51.422;5.514;2023-05-07T11:48:18;21.20;99.90
24226;DHT22;51462;51.422;5.514;2023-05-07T11:51:06;21.30;99.90
24226;DHT22;51462;51.422;5.514;2023-05-07T11:53:39;21.30;99.90
24226;DHT22;51462;51.422;5.514;2023-05-07T11:56:09;21.30;99.90
24226;DHT22;51462;51.422;5.514;2023-05-07T11:58:35;21.20;99.90
24226;DHT22;51462;51.422;5.514;2023-05-07T12:01:01;21.20;99.90
24226;DHT22;51462;51.422;5.514;2023-05-07T12:03:27;21.20;99.90
24226;DHT22;51462;51.422;5.514;2023-05-07T12:05:53;21.10;99.90
24226;DHT22;51462;51.422;5.514;2023-05-07T12:08:20;21.00;99.90
24226;DHT22;51462;51.422;5.514;2023-05-07T12:10:48;21.00;99.90
24226;DHT22;51462;51.422;5.514;2023-05-07T12:13:18;21.00;99.90
24226;DHT22;51462;51.422;5.514;2023-05-07T12:15:44;21.00;99.90
24226;DHT22;51462;51.422;5.514;2023-05-07T12:18:11;20.90;99.90
24226;DHT22;51462;51.422;5.514;2023-05-07T12:20:37;21.00;99.90
24226;DHT22;51462;51.422;5.514;2023-05-07T12:23:03;21.00;99.90
24226;DHT22;51462;51.422;5.514;2023-05-07T12:25:35;20.90;99.90
24226;DHT22;51462;51.422;5.514;2023-05-07T12:28:02;20.70;99.90
24226;DHT22;51462;51.422;5.514;2023-05-07T12:30:29;20.60;99.90
24226;DHT22;51462;51.422;5.514;2023-05-07T12:32:54;19.90;99.90
24226;DHT22;51462;51.422;5.514;2023-05-07T12:35:30;19.20;99.90
24226;DHT22;51462;51.422;5.514;2023-05-07T12:37:56;18.60;99.90
24226;DHT22;51462;51.422;5.514;2023-05-07T12:40:24;18.10;99.90
24226;DHT22;51462;51.422;5.514;2023-05-07T12:42:53;17.90;99.90
24226;DHT22;51462;51.422;5.514;2023-05-07T12:45:20;17.60;99.90
24226;DHT22;51462;51.422;5.514;2023-05-07T12:47:46;17.40;99.90
24226;DHT22;51462;51.422;5.514;2023-05-07T12:50:15;17.50;99.90
24226;DHT22;51462;51.422;5.514;2023-05-07T12:52:41;17.30;99.90
24226;DHT22;51462;51.422;5.514;2023-05-07T12:55:08;17.50;99.90
24226;DHT22;51462;51.422;5.514;2023-05-07T12:57:45;17.70;99.90
24226;DHT22;51462;51.422;5.514;2023-05-07T13:00:13;17.90;99.90
24226;DHT22;51462;51.422;5.514;2023-05-07T13:02:40;18.10;99.90
24226;DHT22;51462;51.422;5.514;2023-05-07T13:05:06;18.20;99.90
24226;DHT22;51462;51.422;5.514;2023-05-07T13:07:32;18.30;99.90
24226;DHT22;51462;51.422;5.514;2023-05-07T13:09:58;18.40;99.90
24226;DHT22;51462;51.422;5.514;2023-05-07T13:12:23;18.60;99.90
24226;DHT22;51462;51.422;5.514;2023-05-07T13:14:49;18.60;99.90
24226;DHT22;51462;51.422;5.514;2023-05-07T13:17:14;18.40;99.90
24226;DHT22;51462;51.422;5.514;2023-05-07T13:19:40;18.20;99.90
24226;DHT22;51462;51.422;5.514;2023-05-07T13:22:05;18.20;99.90
24226;DHT22;51462;51.422;5.514;2023-05-07T13:24:31;18.10;99.90
24226;DHT22;51462;51.422;5.514;2023-05-07T13:26:56;18.30;99.90
24226;DHT22;51462;51.422;5.514;2023-05-07T13:29:22;18.40;99.90
24226;DHT22;51462;51.422;5.514;2023-05-07T13:31:54;18.70;99.90
24226;DHT22;51462;51.422;5.514;2023-05-07T13:34:20;18.80;99.90
24226;DHT22;51462;51.422;5.514;2023-05-07T13:36:46;18.70;99.90
24226;DHT22;51462;51.422;5.514;2023-05-07T13:39:11;18.60;99.90
24226;DHT22;51462;51.422;5.514;2023-05-07T13:41:37;18.80;99.90
24226;DHT22;51462;51.422;5.514;2023-05-07T13:44:03;18.70;99.90
24226;DHT22;51462;51.422;5.514;2023-05-07T13:46:28;18.60;99.90
24226;DHT22;51462;51.422;5.514;2023-05-07T13:48:55;18.60;99.90
24226;DHT22;51462;51.422;5.514;2023-05-07T13:51:21;18.70;99.90
24226;DHT22;51462;51.422;5.514;2023-05-07T13:53:46;18.90;99.90
24226;DHT22;51462;51.422;5.514;2023-05-07T13:56:12;18.80;99.90
24226;DHT22;51462;51.422;5.514;2023-05-07T13:58:38;18.80;99.90
24226;DHT22;51462;51.422;5.514;2023-05-07T14:01:04;18.80;99.90
24226;DHT22;51462;51.422;5.514;2023-05-07T14:03:29;18.70;99.90
24226;DHT22;51462;51.422;5.514;2023-05-07T14:05:57;18.70;99.90
24226;DHT22;51462;51.422;5.514;2023-05-07T14:08:25;18.90;99.90
24226;DHT22;51462;51.422;5.514;2023-05-07T14:10:51;18.80;99.90
24226;DHT22;51462;51.422;5.514;2023-05-07T14:13:17;18.90;99.90
24226;DHT22;51462;51.422;5.514;2023-05-07T14:15:42;18.90;99.90
24226;DHT22;51462;51.422;5.514;2023-05-07T14:18:15;18.90;99.90
24226;DHT22;51462;51.422;5.514;2023-05-07T14:20:41;18.90;99.90
24226;DHT22;51462;51.422;5.514;2023-05-07T14:23:08;18.80;99.90
24226;DHT22;51462;51.422;5.514;2023-05-07T14:25:34;18.90;99.90
24226;DHT22;51462;51.422;5.514;2023-05-07T14:27:59;18.90;99.90
24226;DHT22;51462;51.422;5.514;2023-05-07T14:30:25;19.00;99.90
24226;DHT22;51462;51.422;5.514;2023-05-07T14:32:51;18.90;99.90
24226;DHT22;51462;51.422;5.514;2023-05-07T14:35:16;19.00;99.90
24226;DHT22;51462;51.422;5.514;2023-05-07T14:37:42;18.90;99.90
24226;DHT22;51462;51.422;5.514;2023-05-07T14:40:09;18.80;99.90
24226;DHT22;51462;51.422;5.514;2023-05-07T14:42:34;18.60;99.90
24226;DHT22;51462;51.422;5.514;2023-05-07T14:45:00;18.80;99.90
24226;DHT22;51462;51.422;5.514;2023-05-07T14:47:26;18.80;99.90
24226;DHT22;51462;51.422;5.514;2023-05-07T14:49:51;18.80;99.90
24226;DHT22;51462;51.422;5.514;2023-05-07T14:52:18;18.90;99.90
24226;DHT22;51462;51.422;5.514;2023-05-07T14:54:44;19.00;99.90
24226;DHT22;51462;51.422;5.514;2023-05-07T14:57:10;18.80;99.90
24226;DHT22;51462;51.422;5.514;2023-05-07T14:59:38;18.80;99.90
24226;DHT22;51462;51.422;5.514;2023-05-07T15:02:05;19.00;99.90
24226;DHT22;51462;51.422;5.514;2023-05-07T15:04:33;19.00;99.90
24226;DHT22;51462;51.422;5.514;2023-05-07T15:06:59;19.10;99.90
24226;DHT22;51462;51.422;5.514;2023-05-07T15:09:25;18.90;99.90
24226;DHT22;51462;51.422;5.514;2023-05-07T15:11:51;19.00;99.90
24226;DHT22;51462;51.422;5.514;2023-05-07T15:14:16;19.10;99.90
24226;DHT22;51462;51.422;5.514;2023-05-07T15:16:42;19.10;99.90
24226;DHT22;51462;51.422;5.514;2023-05-07T15:19:08;19.20;99.90
24226;DHT22;51462;51.422;5.514;2023-05-07T15:21:33;19.30;99.90
24226;DHT22;51462;51.422;5.514;2023-05-07T15:24:01;19.30;99.90
24226;DHT22;51462;51.422;5.514;2023-05-07T15:26:26;19.30;99.90
24226;DHT22;51462;51.422;5.514;2023-05-07T15:28:52;19.40;99.90
24226;DHT22;51462;51.422;5.514;2023-05-07T15:31:17;19.20;99.90
24226;DHT22;51462;51.422;5.514;2023-05-07T15:33:43;19.20;99.90
24226;DHT22;51462;51.422;5.514;2023-05-07T15:36:10;19.10;99.90
24226;DHT22;51462;51.422;5.514;2023-05-07T15:38:36;19.10;99.90
24226;DHT22;51462;51.422;5.514;2023-05-07T15:41:01;19.20;99.90
24226;DHT22;51462;51.422;5.514;2023-05-07T15:43:27;19.20;99.90
24226;DHT22;51462;51.422;5.514;2023-05-07T15:45:53;19.10;99.90
24226;DHT22;51462;51.422;5.514;2023-05-07T15:48:18;19.20;99.90
24226;DHT22;51462;51.422;5.514;2023-05-07T15:50:45;19.10;99.90